createdAt,value
2022-09-05T00:00:34.177Z,11.37
2022-09-05T00:01:52.061Z,11.18
2022-09-05T00:03:09.656Z,11.28
2022-09-05T00:04:23.929Z,11.33
2022-09-05T00:05:19.624Z,11.38
2022-09-05T00:06:23.478Z,11.35
2022-09-05T00:07:43.283Z,11.41
2022-09-05T00:08:32.786Z,11.29
2022-09-05T00:09:39.561Z,11.31
2022-09-05T00:11:16.772Z,11.35
2022-09-05T00:11:55.146Z,11.15
2022-09-05T00:13:06.847Z,11.21
2022-09-05T00:14:34.426Z,11.27
2022-09-05T00:15:26.479Z,11.07
2022-09-05T00:16:32.994Z,11.19
2022-09-05T00:18:32.456Z,11.22
2022-09-05T00:20:58.812Z,11.18
2022-09-05T00:24:21.085Z,11.21
2022-09-05T00:24:27.844Z,11.23
2022-09-05T00:24:29.711Z,11.22
2022-09-05T00:24:42.788Z,11.33
2022-09-05T00:25:32.873Z,11.25
2022-09-05T00:26:33.307Z,11.18
2022-09-05T00:27:39.788Z,11.13
2022-09-05T00:28:43.659Z,11.23
2022-09-05T00:30:13.990Z,11.16
2022-09-05T00:31:50.833Z,11.19
2022-09-05T00:31:58.701Z,11.14
2022-09-05T00:33:16.271Z,11.18
2022-09-05T00:34:11.059Z,11.16
2022-09-05T00:35:33.079Z,11.17
2022-09-05T00:36:49.073Z,11.18
2022-09-05T00:37:52.152Z,11.12
2022-09-05T00:38:58.882Z,11.12
2022-09-05T00:40:17.850Z,11.18
2022-09-05T00:41:18.623Z,11.21
2022-09-05T00:42:21.305Z,11.28
2022-09-05T00:43:31.078Z,11.28
2022-09-05T00:44:34.808Z,11.27
2022-09-05T00:45:38.540Z,11.27
2022-09-05T00:46:42.307Z,11.36
2022-09-05T00:47:48.799Z,11.35
2022-09-05T00:48:52.563Z,11.38
2022-09-05T00:51:28.555Z,11.46
2022-09-05T00:52:32.471Z,11.34
2022-09-05T00:53:51.404Z,11.27
2022-09-05T00:55:01.216Z,11.23
2022-09-05T00:56:21.655Z,11.23
2022-09-05T00:57:42.559Z,11.20
2022-09-05T00:58:52.498Z,11.24
2022-09-05T01:00:08.602Z,11.20
2022-09-05T01:01:30.219Z,10.99
2022-09-05T01:02:52.126Z,11.18
2022-09-05T01:03:59.030Z,11.19
2022-09-05T01:05:02.887Z,10.86
2022-09-05T01:06:09.651Z,11.03
2022-09-05T01:07:16.480Z,11.03
2022-09-05T01:08:37.059Z,11.07
2022-09-05T01:09:44.009Z,11.09
2022-09-05T01:10:50.519Z,11.09
2022-09-05T01:12:00.338Z,11.10
2022-09-05T01:13:07.182Z,11.07
2022-09-05T01:15:28.648Z,11.17
2022-09-05T01:16:33.946Z,11.05
2022-09-05T01:17:49.945Z,11.01
2022-09-05T01:18:59.616Z,10.96
2022-09-05T01:20:18.681Z,10.94
2022-09-05T01:21:20.967Z,10.97
2022-09-05T01:22:40.239Z,10.85
2022-09-05T01:23:47.149Z,10.87
2022-09-05T01:25:03.142Z,10.83
2022-09-05T01:26:06.927Z,10.81
2022-09-05T01:27:10.630Z,10.80
2022-09-05T01:29:14.128Z,10.75
2022-09-05T01:29:21.351Z,10.74
2022-09-05T01:30:31.851Z,10.80
2022-09-05T01:31:47.229Z,10.80
2022-09-05T01:32:50.943Z,10.63
2022-09-05T01:34:02.866Z,10.61
2022-09-05T01:35:23.395Z,10.47
2022-09-05T01:36:30.423Z,10.57
2022-09-05T01:37:34.489Z,10.53
2022-09-05T01:39:55.233Z,10.68
2022-09-05T01:40:14.549Z,10.71
2022-09-05T01:43:02.163Z,10.92
2022-09-05T01:44:22.493Z,10.72
2022-09-05T01:45:39.202Z,10.65
2022-09-05T01:46:54.557Z,10.57
2022-09-05T01:48:07.958Z,10.60
2022-09-05T01:49:14.545Z,10.60
2022-09-05T01:50:37.282Z,10.59
2022-09-05T01:51:56.148Z,10.60
2022-09-05T01:53:06.023Z,10.65
2022-09-05T01:54:24.604Z,10.66
2022-09-05T01:55:29.264Z,10.68
2022-09-05T01:56:48.444Z,10.75
2022-09-05T01:57:52.372Z,10.79
2022-09-05T01:58:59.232Z,10.78
2022-09-05T02:00:06.002Z,10.72
2022-09-05T02:01:26.623Z,10.76
2022-09-05T02:02:39.967Z,10.52
2022-09-05T02:03:44.132Z,10.47
2022-09-05T02:04:47.953Z,10.64
2022-09-05T02:06:10.231Z,10.74
2022-09-05T02:07:30.919Z,10.73
2022-09-05T02:08:25.573Z,10.60
2022-09-05T02:09:29.376Z,10.50
2022-09-05T02:10:33.187Z,10.60
2022-09-05T02:11:55.470Z,10.31
2022-09-05T02:13:02.962Z,10.06
2022-09-05T02:14:04.767Z,10.18
2022-09-05T02:15:08.625Z,10.30
2022-09-05T02:16:27.945Z,10.42
2022-09-05T02:17:49.567Z,10.52
2022-09-05T02:18:52.401Z,10.57
2022-09-05T02:19:58.956Z,10.63
2022-09-05T02:21:01.743Z,10.58
2022-09-05T02:22:10.582Z,10.64
2022-09-05T02:23:41.075Z,10.66
2022-09-05T02:24:35.107Z,10.66
2022-09-05T02:26:02.773Z,10.60
2022-09-05T02:26:47.642Z,10.50
2022-09-05T02:28:04.919Z,10.60
2022-09-05T02:28:57.071Z,10.66
2022-09-05T02:30:16.160Z,10.67
2022-09-05T02:31:20.949Z,10.70
2022-09-05T02:32:24.854Z,10.73
2022-09-05T02:33:28.710Z,10.73
2022-09-05T02:34:32.547Z,10.73
2022-09-05T02:35:42.496Z,10.75
2022-09-05T02:36:46.322Z,10.75
2022-09-05T02:38:38.014Z,10.77
2022-09-05T02:42:30.457Z,10.76
2022-09-05T02:45:02.308Z,10.73
2022-09-05T02:45:09.523Z,10.77
2022-09-05T02:45:12.358Z,10.68
2022-09-05T02:45:17.492Z,10.77
2022-09-05T02:45:27.162Z,10.75
2022-09-05T02:46:44.758Z,10.77
2022-09-05T02:47:51.394Z,10.76
2022-09-05T02:49:01.414Z,10.82
2022-09-05T02:52:27.581Z,10.77
2022-09-05T02:57:28.900Z,10.39
2022-09-05T02:57:29.556Z,10.73
2022-09-05T02:57:33.868Z,10.59
2022-09-05T02:57:35.418Z,10.47
2022-09-05T02:57:37.224Z,10.66
2022-09-05T02:57:43.271Z,10.24
2022-09-05T02:58:07.295Z,10.15
2022-09-05T02:59:16.314Z,10.31
2022-09-05T03:00:06.683Z,10.36
2022-09-05T03:01:19.734Z,10.33
2022-09-05T03:02:32.506Z,10.39
2022-09-05T03:03:39.597Z,10.50
2022-09-05T03:04:46.085Z,10.54
2022-09-05T03:05:51.659Z,10.60
2022-09-05T03:06:58.459Z,10.42
2022-09-05T03:08:05.083Z,9.96
2022-09-05T03:09:17.175Z,10.20
2022-09-05T03:10:17.725Z,10.46
2022-09-05T03:11:27.442Z,10.65
2022-09-05T03:12:31.181Z,10.69
2022-09-05T03:13:54.505Z,10.36
2022-09-05T03:15:18.687Z,10.67
2022-09-05T03:16:29.212Z,10.73
2022-09-05T03:17:38.918Z,10.72
2022-09-05T03:18:45.641Z,10.75
2022-09-05T03:19:52.376Z,10.77
2022-09-05T03:21:12.934Z,10.74
2022-09-05T03:22:25.979Z,10.73
2022-09-05T03:23:36.189Z,10.75
2022-09-05T03:24:58.071Z,10.56
2022-09-05T03:26:08.882Z,10.59
2022-09-05T03:27:22.334Z,10.70
2022-09-05T03:28:44.595Z,10.73
2022-09-05T03:29:58.881Z,10.79
2022-09-05T03:31:22.563Z,10.64
2022-09-05T03:32:41.958Z,10.51
2022-09-05T03:33:49.046Z,10.67
2022-09-05T03:34:52.783Z,10.77
2022-09-05T03:36:15.343Z,10.74
2022-09-05T03:37:37.616Z,10.82
2022-09-05T03:38:41.374Z,10.83
2022-09-05T03:40:00.739Z,10.85
2022-09-05T03:41:06.894Z,10.84
2022-09-05T03:42:14.593Z,10.70
2022-09-05T03:43:23.384Z,10.83
2022-09-05T03:44:32.916Z,10.82
2022-09-05T03:45:37.781Z,10.79
2022-09-05T03:47:00.271Z,10.85
2022-09-05T03:48:27.902Z,10.79
2022-09-05T03:53:09.172Z,10.82
2022-09-05T03:57:04.182Z,10.84
2022-09-05T03:57:05.155Z,10.85
2022-09-05T03:57:11.362Z,10.98
2022-09-05T03:57:13.298Z,10.88
2022-09-05T03:57:19.057Z,10.92
2022-09-05T03:57:20.404Z,10.91
2022-09-05T03:57:43.455Z,11.00
2022-09-05T03:59:05.792Z,11.04
2022-09-05T04:00:09.758Z,11.08
2022-09-05T04:03:00.025Z,11.05
2022-09-05T04:05:43.309Z,10.90
2022-09-05T04:08:07.316Z,11.10
2022-09-05T04:08:08.766Z,11.10
2022-09-05T04:08:24.210Z,11.13
2022-09-05T04:08:24.733Z,10.87
2022-09-05T04:08:31.042Z,10.87
2022-09-05T04:09:43.380Z,11.01
2022-09-05T04:10:31.788Z,11.09
2022-09-05T04:11:36.071Z,11.12
2022-09-05T04:12:39.846Z,11.14
2022-09-05T04:13:46.820Z,11.11
2022-09-05T04:14:51.079Z,11.18
2022-09-05T04:16:00.795Z,11.13
2022-09-05T04:17:04.834Z,11.25
2022-09-05T04:18:13.390Z,11.25
2022-09-05T04:19:26.042Z,11.24
2022-09-05T04:20:46.536Z,11.26
2022-09-05T04:21:50.300Z,11.23
2022-09-05T04:23:09.426Z,11.29
2022-09-05T04:24:13.243Z,11.32
2022-09-05T04:25:17.279Z,11.34
2022-09-05T04:26:38.147Z,11.35
2022-09-05T04:27:58.665Z,11.34
2022-09-05T04:29:14.686Z,11.35
2022-09-05T04:30:38.937Z,11.35
2022-09-05T04:31:40.903Z,11.36
2022-09-05T04:33:03.019Z,11.39
2022-09-05T04:34:09.912Z,11.42
2022-09-05T04:35:19.802Z,11.44
2022-09-05T04:36:23.641Z,11.41
2022-09-05T04:37:30.338Z,11.43
2022-09-05T04:38:36.031Z,11.26
2022-09-05T04:39:38.063Z,10.99
2022-09-05T04:40:47.982Z,11.25
2022-09-05T04:41:54.724Z,11.40
2022-09-05T04:42:58.544Z,11.48
2022-09-05T04:44:02.608Z,11.48
2022-09-05T04:45:10.566Z,11.54
2022-09-05T04:46:18.820Z,11.58
2022-09-05T04:47:29.622Z,11.58
2022-09-05T04:48:36.243Z,11.63
2022-09-05T04:49:41.710Z,11.69
2022-09-05T04:50:56.436Z,11.75
2022-09-05T04:52:25.729Z,11.83
2022-09-05T04:53:33.459Z,11.91
2022-09-05T04:54:37.167Z,11.89
2022-09-05T04:55:41.139Z,11.95
2022-09-05T04:56:46.671Z,12.08
2022-09-05T04:57:50.396Z,12.10
2022-09-05T05:01:24.298Z,12.08
2022-09-05T05:04:32.436Z,12.15
2022-09-05T05:06:00.876Z,12.33
2022-09-05T05:06:01.443Z,12.24
2022-09-05T05:06:13.897Z,12.46
2022-09-05T05:06:16.909Z,12.53
2022-09-05T05:06:19.102Z,12.39
2022-09-05T05:06:46.766Z,12.64
2022-09-05T05:07:49.907Z,12.68
2022-09-05T05:09:03.235Z,12.75
2022-09-05T05:10:51.093Z,12.84
2022-09-05T05:16:34.105Z,12.93
2022-09-05T05:17:55.650Z,13.09
2022-09-05T05:17:59.514Z,13.01
2022-09-05T05:18:06.546Z,13.00
2022-09-05T05:18:11.814Z,13.23
2022-09-05T05:18:14.074Z,13.19
2022-09-05T05:18:48.840Z,13.42
2022-09-05T05:19:47.542Z,13.41
2022-09-05T05:20:56.277Z,13.50
2022-09-05T05:22:00.293Z,13.53
2022-09-05T05:23:06.596Z,13.60
2022-09-05T05:24:11.222Z,13.71
2022-09-05T05:25:13.690Z,13.74
2022-09-05T05:26:20.725Z,13.60
2022-09-05T05:27:25.350Z,13.67
2022-09-05T05:28:29.257Z,13.68
2022-09-05T05:29:39.273Z,13.66
2022-09-05T05:30:41.480Z,13.61
2022-09-05T05:31:48.093Z,13.63
2022-09-05T05:32:51.835Z,13.67
2022-09-05T05:33:55.768Z,13.66
2022-09-05T05:35:03.195Z,13.41
2022-09-05T05:36:07.114Z,13.46
2022-09-05T05:37:23.191Z,13.70
2022-09-05T05:38:27.065Z,13.65
2022-09-05T05:39:29.733Z,13.41
2022-09-05T05:40:33.987Z,13.64
2022-09-05T05:41:41.562Z,13.55
2022-09-05T05:42:44.178Z,13.47
2022-09-05T05:43:48.299Z,13.51
2022-09-05T05:44:55.010Z,13.27
2022-09-05T05:45:58.992Z,13.44
2022-09-05T05:47:02.718Z,13.44
2022-09-05T05:48:06.260Z,13.43
2022-09-05T05:49:18.862Z,13.41
2022-09-05T05:50:41.107Z,13.34
2022-09-05T05:52:00.923Z,13.29
2022-09-05T05:53:02.862Z,13.14
2022-09-05T05:54:23.816Z,12.64
2022-09-05T05:55:51.915Z,12.81
2022-09-05T05:57:02.195Z,12.66
2022-09-05T05:58:14.231Z,12.65
2022-09-05T05:59:33.469Z,12.75
2022-09-05T06:00:40.370Z,12.80
2022-09-05T06:01:51.922Z,12.83
2022-09-05T06:03:25.945Z,12.87
2022-09-05T06:04:22.346Z,12.88
2022-09-05T06:05:26.128Z,12.82
2022-09-05T06:06:45.250Z,12.88
2022-09-05T06:09:12.751Z,12.86
2022-09-05T06:14:50.493Z,12.86
2022-09-05T06:14:52.969Z,12.85
2022-09-05T06:14:55.253Z,12.80
2022-09-05T06:14:57.016Z,12.74
2022-09-05T06:15:08.759Z,12.30
2022-09-05T06:15:08.918Z,12.15
2022-09-05T06:16:11.219Z,12.50
2022-09-05T06:17:27.936Z,12.69
2022-09-05T06:18:46.009Z,12.67
2022-09-05T06:22:05.370Z,12.77
2022-09-05T06:22:09.468Z,12.77
2022-09-05T06:22:21.529Z,12.75
2022-09-05T06:23:39.343Z,12.55
2022-09-05T06:24:49.380Z,12.64
2022-09-05T06:26:05.998Z,12.74
2022-09-05T06:27:28.203Z,12.60
2022-09-05T06:28:32.104Z,12.28
2022-09-05T06:29:38.530Z,12.52
2022-09-05T06:30:41.962Z,12.54
2022-09-05T06:31:48.533Z,12.82
2022-09-05T06:33:01.940Z,13.25
2022-09-05T06:34:30.928Z,13.50
2022-09-05T06:35:20.892Z,13.51
2022-09-05T06:36:25.202Z,13.76
2022-09-05T06:37:32.426Z,14.11
2022-09-05T06:38:39.176Z,13.88
2022-09-05T06:39:59.591Z,14.47
2022-09-05T06:41:20.125Z,14.41
2022-09-05T06:42:42.042Z,14.15
2022-09-05T06:43:47.123Z,14.32
2022-09-05T06:45:00.225Z,14.29
2022-09-05T06:46:12.067Z,14.41
2022-09-05T06:47:24.026Z,14.33
2022-09-05T06:48:32.073Z,14.43
2022-09-05T06:49:37.392Z,14.87
2022-09-05T06:50:48.201Z,14.72
2022-09-05T06:51:45.101Z,14.69
2022-09-05T06:52:54.310Z,14.97
2022-09-05T06:54:10.428Z,15.02
2022-09-05T06:55:17.243Z,14.93
2022-09-05T06:56:25.829Z,15.28
2022-09-05T06:57:32.929Z,15.33
2022-09-05T06:58:53.887Z,15.22
2022-09-05T06:59:59.555Z,15.11
2022-09-05T07:01:02.167Z,14.97
2022-09-05T07:02:25.717Z,14.93
2022-09-05T07:03:26.219Z,14.86
2022-09-05T07:04:49.306Z,14.83
2022-09-05T07:05:50.665Z,14.75
2022-09-05T07:07:01.824Z,14.75
2022-09-05T07:08:09.303Z,14.53
2022-09-05T07:09:22.563Z,14.20
2022-09-05T07:10:38.449Z,14.18
2022-09-05T07:11:36.622Z,14.17
2022-09-05T07:12:46.441Z,14.32
2022-09-05T07:13:56.015Z,14.33
2022-09-05T07:15:08.613Z,14.28
2022-09-05T07:16:05.811Z,14.34
2022-09-05T07:17:10.099Z,14.27
2022-09-05T07:18:26.281Z,14.04
2022-09-05T07:19:33.106Z,14.02
2022-09-05T07:21:15.939Z,13.81
2022-09-05T07:21:45.447Z,13.87
2022-09-05T07:23:20.339Z,13.79
2022-09-05T07:24:13.109Z,13.75
2022-09-05T07:25:18.325Z,13.70
2022-09-05T07:26:42.082Z,13.49
2022-09-05T07:27:41.977Z,13.65
2022-09-05T07:28:41.722Z,13.55
2022-09-05T07:29:52.500Z,13.42
2022-09-05T07:30:55.587Z,13.37
2022-09-05T07:31:58.834Z,13.21
2022-09-05T07:33:02.702Z,13.00
2022-09-05T07:34:21.254Z,13.14
2022-09-05T07:35:15.107Z,13.11
2022-09-05T07:36:22.105Z,13.10
2022-09-05T07:37:31.995Z,12.72
2022-09-05T07:38:52.491Z,13.17
2022-09-05T07:39:41.473Z,13.14
2022-09-05T07:40:47.974Z,13.23
2022-09-05T07:41:52.045Z,12.87
2022-09-05T07:43:09.190Z,12.88
2022-09-05T07:44:04.306Z,12.88
2022-09-05T07:45:08.283Z,12.87
2022-09-05T07:46:23.702Z,12.86
2022-09-05T07:47:30.935Z,12.72
2022-09-05T07:48:35.670Z,12.72
2022-09-05T07:49:42.314Z,12.66
2022-09-05T07:56:17.194Z,12.65
2022-09-05T07:56:50.385Z,12.71
2022-09-05T07:57:01.706Z,12.62
2022-09-05T07:57:04.124Z,12.60
2022-09-05T07:57:08.066Z,12.68
2022-09-05T07:57:20.708Z,12.49
2022-09-05T07:57:52.808Z,12.61
2022-09-05T07:58:55.102Z,12.71
2022-09-05T07:59:58.852Z,12.75
2022-09-05T08:01:01.464Z,12.72
2022-09-05T08:02:05.799Z,12.64
2022-09-05T08:03:09.622Z,12.63
2022-09-05T08:04:13.376Z,12.54
2022-09-05T08:05:16.471Z,12.21
2022-09-05T08:06:34.345Z,12.41
2022-09-05T08:07:49.756Z,12.45
2022-09-05T08:08:33.103Z,12.50
2022-09-05T08:10:06.740Z,12.46
2022-09-05T08:11:22.202Z,12.52
2022-09-05T08:12:09.904Z,12.24
2022-09-05T08:13:23.940Z,12.44
2022-09-05T08:14:40.748Z,12.44
2022-09-05T08:15:32.610Z,12.39
2022-09-05T08:16:32.891Z,12.27
2022-09-05T08:17:36.596Z,12.39
2022-09-05T08:18:40.943Z,12.47
2022-09-05T08:19:48.919Z,12.58
2022-09-05T08:20:52.541Z,12.67
2022-09-05T08:21:55.252Z,12.74
2022-09-05T08:23:02.220Z,12.80
2022-09-05T08:24:13.962Z,12.90
2022-09-05T08:25:34.959Z,13.00
2022-09-05T08:26:46.355Z,13.00
2022-09-05T08:27:53.449Z,12.90
2022-09-05T08:29:03.363Z,12.68
2022-09-05T08:30:25.868Z,12.50
2022-09-05T08:31:12.958Z,12.62
2022-09-05T08:32:16.886Z,12.59
2022-09-05T08:33:23.511Z,12.75
2022-09-05T08:34:32.726Z,12.86
2022-09-05T08:35:42.292Z,12.79
2022-09-05T08:36:45.532Z,12.74
2022-09-05T08:37:48.421Z,12.83
2022-09-05T08:38:50.679Z,12.97
2022-09-05T08:40:05.435Z,13.03
2022-09-05T08:41:51.233Z,13.06
2022-09-05T08:43:38.081Z,13.24
2022-09-05T08:46:37.405Z,13.24
2022-09-05T08:46:41.383Z,13.28
2022-09-05T08:46:48.716Z,13.44
2022-09-05T08:47:50.665Z,13.53
2022-09-05T08:49:00.689Z,13.48
2022-09-05T08:50:14.810Z,13.55
2022-09-05T08:51:18.628Z,13.68
2022-09-05T08:52:25.211Z,13.56
2022-09-05T08:53:46.676Z,13.38
2022-09-05T08:55:05.682Z,13.40
2022-09-05T08:56:07.744Z,13.35
2022-09-05T08:57:11.547Z,13.32
2022-09-05T08:58:21.170Z,13.40
2022-09-05T08:59:32.915Z,13.33
2022-09-05T09:00:50.394Z,13.42
2022-09-05T09:02:45.396Z,13.58
2022-09-05T09:03:15.664Z,14.03
2022-09-05T09:04:39.977Z,13.97
2022-09-05T09:05:58.128Z,14.36
2022-09-05T09:06:36.490Z,14.37
2022-09-05T09:07:51.747Z,14.75
2022-09-05T09:08:48.699Z,14.82
2022-09-05T09:09:58.823Z,15.03
2022-09-05T09:11:14.973Z,15.19
2022-09-05T09:12:35.252Z,15.11
2022-09-05T09:13:54.134Z,15.31
2022-09-05T09:15:00.196Z,15.47
2022-09-05T09:16:22.772Z,15.64
2022-09-05T09:17:41.963Z,15.79
2022-09-05T09:18:51.524Z,16.02
2022-09-05T09:20:10.283Z,15.96
2022-09-05T09:21:26.136Z,16.01
2022-09-05T09:22:39.246Z,16.10
2022-09-05T09:23:46.140Z,16.23
2022-09-05T09:25:14.772Z,16.30
2022-09-05T09:26:04.567Z,16.48
2022-09-05T09:27:08.329Z,16.57
2022-09-05T09:28:50.052Z,16.68
2022-09-05T09:29:39.697Z,16.73
2022-09-05T09:31:04.458Z,16.81
2022-09-05T09:32:17.100Z,16.88
2022-09-05T09:33:20.953Z,16.91
2022-09-05T09:34:26.446Z,16.88
2022-09-05T09:35:36.182Z,17.01
2022-09-05T09:36:49.004Z,17.04
2022-09-05T09:38:10.854Z,17.09
2022-09-05T09:39:38.784Z,17.05
2022-09-05T09:40:20.459Z,17.01
2022-09-05T09:41:59.130Z,17.19
2022-09-05T09:43:08.903Z,16.98
2022-09-05T09:44:29.465Z,17.16
2022-09-05T09:45:33.202Z,16.99
2022-09-05T09:46:45.061Z,17.01
2022-09-05T09:48:05.299Z,17.17
2022-09-05T09:49:22.997Z,17.10
2022-09-05T09:50:17.650Z,17.09
2022-09-05T09:51:33.441Z,17.37
2022-09-05T09:52:37.190Z,17.46
2022-09-05T09:53:43.942Z,17.24
2022-09-05T09:54:50.982Z,17.08
2022-09-05T09:56:09.972Z,17.20
2022-09-05T09:57:30.358Z,17.00
2022-09-05T09:58:50.912Z,17.32
2022-09-05T09:59:55.348Z,17.39
2022-09-05T10:01:02.197Z,17.39
2022-09-05T10:02:26.731Z,17.71
2022-09-05T10:08:57.375Z,17.97
2022-09-05T10:10:38.768Z,18.13
2022-09-05T10:10:47.494Z,18.39
2022-09-05T10:10:47.867Z,17.83
2022-09-05T10:10:49.915Z,18.30
2022-09-05T10:10:53.747Z,18.44
2022-09-05T10:12:20.788Z,18.12
2022-09-05T10:13:26.763Z,18.15
2022-09-05T10:14:47.567Z,17.81
2022-09-05T10:15:54.002Z,17.78
2022-09-05T10:17:07.379Z,17.76
2022-09-05T10:18:29.119Z,17.27
2022-09-05T10:20:09.491Z,17.06
2022-09-05T10:21:15.367Z,16.82
2022-09-05T10:23:20.838Z,16.46
2022-09-05T10:24:27.482Z,16.31
2022-09-05T10:25:46.356Z,16.61
2022-09-05T10:27:02.218Z,16.65
2022-09-05T10:28:09.009Z,16.71
2022-09-05T10:29:36.960Z,16.60
2022-09-05T10:30:26.656Z,16.71
2022-09-05T10:34:04.199Z,16.60
2022-09-05T10:35:04.672Z,16.62
2022-09-05T10:35:11.472Z,16.73
2022-09-05T10:35:22.278Z,16.72
2022-09-05T10:36:23.476Z,16.73
2022-09-05T10:37:27.222Z,16.72
2022-09-05T10:38:39.807Z,16.70
2022-09-05T10:39:43.670Z,16.71
2022-09-05T10:41:21.005Z,16.77
2022-09-05T10:41:55.969Z,16.78
2022-09-05T10:43:01.327Z,16.77
2022-09-05T10:44:04.957Z,16.79
2022-09-05T10:45:08.767Z,16.44
2022-09-05T10:46:49.572Z,16.56
2022-09-05T10:47:33.698Z,16.47
2022-09-05T10:48:55.847Z,16.53
2022-09-05T10:50:11.913Z,16.67
2022-09-05T10:51:27.221Z,16.65
2022-09-05T10:52:27.215Z,16.71
2022-09-05T10:53:39.422Z,16.72
2022-09-05T10:55:01.268Z,16.87
2022-09-05T10:56:01.493Z,16.82
2022-09-05T10:57:09.539Z,17.01
2022-09-05T10:58:16.428Z,17.13
2022-09-05T11:01:33.427Z,17.25
2022-09-05T11:02:20.275Z,16.57
2022-09-05T11:02:21.866Z,16.69
2022-09-05T11:02:42.523Z,16.84
2022-09-05T11:03:56.483Z,17.00
2022-09-05T11:05:17.216Z,17.26
2022-09-05T11:06:25.008Z,17.29
2022-09-05T11:07:29.387Z,17.07
2022-09-05T11:08:41.943Z,17.21
2022-09-05T11:09:48.538Z,17.31
2022-09-05T11:11:03.039Z,17.45
2022-09-05T11:12:09.587Z,17.50
2022-09-05T11:13:16.192Z,17.45
2022-09-05T11:14:26.812Z,17.40
2022-09-05T11:15:31.444Z,17.55
2022-09-05T11:16:38.479Z,17.63
2022-09-05T11:17:42.299Z,17.52
2022-09-05T11:19:01.756Z,17.58
2022-09-05T11:20:05.482Z,17.53
2022-09-05T11:21:11.292Z,17.63
2022-09-05T11:22:23.863Z,17.75
2022-09-05T11:23:19.343Z,17.81
2022-09-05T11:24:35.404Z,17.91
2022-09-05T11:25:40.527Z,17.93
2022-09-05T11:26:54.519Z,18.04
2022-09-05T11:27:55.014Z,18.19
2022-09-05T11:29:00.386Z,18.18
2022-09-05T11:30:30.392Z,18.47
2022-09-05T11:31:24.974Z,18.51
2022-09-05T11:36:21.585Z,18.56
2022-09-05T11:39:52.398Z,18.39
2022-09-05T11:39:54.233Z,18.42
2022-09-05T11:39:56.397Z,18.14
2022-09-05T11:39:59.807Z,18.51
2022-09-05T11:40:02.213Z,18.18
2022-09-05T11:40:06.359Z,18.28
2022-09-05T11:41:05.178Z,18.19
2022-09-05T11:42:09.129Z,17.68
2022-09-05T11:43:25.575Z,17.72
2022-09-05T11:44:29.346Z,17.63
2022-09-05T11:45:50.212Z,17.53
2022-09-05T11:46:56.916Z,17.51
2022-09-05T11:48:02.397Z,17.46
2022-09-05T11:49:06.165Z,17.51
2022-09-05T11:50:12.918Z,17.49
2022-09-05T11:51:19.675Z,17.58
2022-09-05T11:52:31.204Z,17.65
2022-09-05T11:53:51.620Z,17.45
2022-09-05T11:54:55.668Z,17.33
2022-09-05T11:56:02.703Z,17.52
2022-09-05T11:57:32.391Z,17.70
2022-09-05T11:58:44.809Z,17.85
2022-09-05T12:00:09.273Z,17.91
2022-09-05T12:01:41.199Z,17.93
2022-09-05T12:02:28.236Z,17.75
2022-09-05T12:03:58.230Z,17.76
2022-09-05T12:04:40.835Z,17.81
2022-09-05T12:05:59.363Z,17.78
2022-09-05T12:07:07.344Z,17.89
2022-09-05T12:08:08.761Z,17.80
2022-09-05T12:09:23.842Z,17.81
2022-09-05T12:10:46.159Z,17.80
2022-09-05T12:11:51.577Z,17.74
2022-09-05T12:12:55.334Z,17.98
2022-09-05T12:13:59.196Z,17.84
2022-09-05T12:15:07.407Z,17.91
2022-09-05T12:17:35.285Z,17.97
2022-09-05T12:18:45.838Z,18.18
2022-09-05T12:19:52.619Z,18.29
2022-09-05T12:20:59.128Z,18.30
2022-09-05T12:22:23.663Z,18.18
2022-09-05T12:24:10.924Z,18.02
2022-09-05T12:25:26.747Z,18.00
2022-09-05T12:27:38.516Z,18.02
2022-09-05T12:27:40.543Z,17.96
2022-09-05T12:29:27.514Z,17.97
2022-09-05T12:29:38.815Z,17.94
2022-09-05T12:30:49.018Z,17.80
2022-09-05T12:32:50.437Z,17.44
2022-09-05T12:36:02.620Z,17.52
2022-09-05T12:36:10.277Z,17.37
2022-09-05T12:36:11.387Z,17.21
2022-09-05T12:40:30.215Z,17.32
2022-09-05T12:40:43.589Z,17.47
2022-09-05T12:40:55.185Z,17.39
2022-09-05T12:41:33.758Z,17.39
2022-09-05T12:41:37.999Z,17.33
2022-09-05T12:42:09.901Z,17.95
2022-09-05T12:42:14.006Z,17.31
2022-09-05T12:44:14.882Z,17.22
2022-09-05T12:44:42.556Z,17.25
2022-09-05T12:45:37.435Z,17.21
2022-09-05T12:46:45.918Z,17.19
2022-09-05T12:47:53.277Z,17.20
2022-09-05T12:49:07.012Z,17.21
2022-09-05T12:50:15.806Z,17.24
2022-09-05T12:51:46.177Z,17.28
2022-09-05T12:52:34.060Z,17.35
2022-09-05T12:53:55.898Z,17.32
2022-09-05T12:54:59.375Z,17.42
2022-09-05T12:57:41.912Z,17.34
2022-09-05T13:02:22.076Z,17.31
2022-09-05T13:02:57.432Z,17.34
2022-09-05T13:02:58.813Z,17.24
2022-09-05T13:03:07.157Z,17.56
2022-09-05T13:03:07.543Z,17.35
2022-09-05T13:03:09.050Z,17.35
2022-09-05T13:04:20.178Z,17.67
2022-09-05T13:05:14.333Z,17.82
2022-09-05T13:06:26.131Z,17.96
2022-09-05T13:07:42.108Z,17.95
2022-09-05T13:08:45.754Z,18.04
2022-09-05T13:12:45.248Z,18.00
2022-09-05T13:14:48.663Z,18.11
2022-09-05T13:14:57.072Z,17.83
2022-09-05T13:14:57.190Z,18.06
2022-09-05T13:15:07.802Z,17.98
2022-09-05T13:15:38.494Z,17.84
2022-09-05T13:16:42.571Z,17.81
2022-09-05T13:17:46.318Z,17.81
2022-09-05T13:18:50.031Z,17.88
2022-09-05T13:19:52.681Z,17.96
2022-09-05T13:20:56.523Z,17.98
2022-09-05T13:22:00.246Z,18.05
2022-09-05T13:23:04.275Z,18.12
2022-09-05T13:24:14.081Z,18.08
2022-09-05T13:25:20.895Z,17.96
2022-09-05T13:26:24.788Z,17.96
2022-09-05T13:27:31.539Z,17.94
2022-09-05T13:28:41.443Z,17.94
2022-09-05T13:32:01.197Z,17.95
2022-09-05T13:37:55.001Z,17.84
2022-09-05T13:37:58.028Z,17.65
2022-09-05T13:37:59.372Z,17.61
2022-09-05T13:38:14.749Z,17.60
2022-09-05T13:38:17.737Z,17.53
2022-09-05T13:38:19.752Z,17.57
2022-09-05T13:39:18.312Z,17.47
2022-09-05T13:40:21.638Z,17.29
2022-09-05T13:41:26.943Z,17.09
2022-09-05T13:42:31.194Z,17.20
2022-09-05T13:43:34.431Z,17.17
2022-09-05T13:44:38.370Z,17.08
2022-09-05T13:45:54.129Z,17.16
2022-09-05T13:47:01.218Z,16.98
2022-09-05T13:48:17.330Z,16.98
2022-09-05T13:49:27.183Z,16.81
2022-09-05T13:50:26.765Z,16.82
2022-09-05T13:51:33.481Z,16.84
2022-09-05T13:52:37.203Z,16.77
2022-09-05T13:53:50.035Z,16.91
2022-09-05T13:54:53.758Z,16.98
2022-09-05T13:56:03.181Z,16.97
2022-09-05T13:57:07.617Z,17.02
2022-09-05T13:58:17.110Z,16.94
2022-09-05T13:59:19.863Z,16.98
2022-09-05T14:00:27.649Z,16.98
2022-09-05T14:02:04.488Z,16.81
2022-09-05T14:05:05.277Z,17.08
2022-09-05T14:05:39.569Z,16.96
2022-09-05T14:07:43.956Z,16.88
2022-09-05T14:08:04.760Z,16.97
2022-09-05T14:10:17.103Z,16.98
2022-09-05T14:11:33.335Z,16.90
2022-09-05T14:12:39.176Z,16.83
2022-09-05T14:13:58.669Z,16.70
2022-09-05T14:15:10.762Z,16.55
2022-09-05T14:16:08.345Z,16.56
2022-09-05T14:18:26.961Z,16.50
2022-09-05T14:19:30.550Z,16.44
2022-09-05T14:20:36.026Z,16.47
2022-09-05T14:21:39.886Z,16.51
2022-09-05T14:22:52.751Z,16.51
2022-09-05T14:24:03.212Z,16.53
2022-09-05T14:25:06.292Z,16.62
2022-09-05T14:26:14.711Z,16.62
2022-09-05T14:27:15.918Z,16.61
2022-09-05T14:28:26.828Z,16.69
2022-09-05T14:29:33.264Z,16.61
2022-09-05T14:35:12.326Z,16.66
2022-09-05T14:37:30.025Z,16.67
2022-09-05T14:37:36.917Z,16.60
2022-09-05T14:37:46.539Z,16.63
2022-09-05T14:37:49.872Z,16.68
2022-09-05T14:38:01.655Z,16.73
2022-09-05T14:38:05.798Z,16.60
2022-09-05T14:38:52.863Z,16.62
2022-09-05T14:39:59.359Z,16.73
2022-09-05T14:41:23.389Z,16.78
2022-09-05T14:42:36.434Z,16.87
2022-09-05T14:43:47.546Z,16.92
2022-09-05T14:44:54.451Z,16.98
2022-09-05T14:46:02.611Z,16.97
2022-09-05T14:47:09.466Z,17.07
2022-09-05T14:48:31.640Z,17.13
2022-09-05T14:49:35.407Z,17.06
2022-09-05T14:50:48.252Z,16.93
2022-09-05T14:51:53.283Z,16.78
2022-09-05T14:55:24.715Z,16.78
2022-09-05T14:57:23.288Z,16.77
2022-09-05T15:02:48.152Z,16.83
2022-09-05T15:02:49.949Z,16.84
2022-09-05T15:02:52.912Z,16.79
2022-09-05T15:02:57.750Z,16.74
2022-09-05T15:02:58.394Z,16.75
2022-09-05T15:03:14.031Z,16.80
2022-09-05T15:04:33.137Z,16.86
2022-09-05T15:05:29.136Z,16.66
2022-09-05T15:06:33.309Z,16.72
2022-09-05T15:07:39.672Z,16.67
2022-09-05T15:11:25.848Z,16.72
2022-09-05T15:12:16.828Z,16.62
2022-09-05T15:12:19.782Z,16.59
2022-09-05T15:12:20.231Z,16.63
2022-09-05T15:13:12.156Z,16.62